sensor_id;sensor_type;location;lat;lon;timestamp;temperature;humidity
324;DHT22;149;51.094;17.002;2022-07-09T00:01:23;16.10;99.90
324;DHT22;149;51.094;17.002;2022-07-09T00:03:51;16.20;99.90
324;DHT22;149;51.094;17.002;2022-07-09T00:06:19;16.30;99.90
324;DHT22;149;51.094;17.002;2022-07-09T00:08:46;16.30;99.90
324;DHT22;149;51.094;17.002;2022-07-09T00:11:13;16.20;99.90
324;DHT22;149;51.094;17.002;2022-07-09T00:13:41;16.10;99.90
324;DHT22;149;51.094;17.002;2022-07-09T00:16:08;16.10;99.90
324;DHT22;149;51.094;17.002;2022-07-09T00:18:36;16.20;99.90
324;DHT22;149;51.094;17.002;2022-07-09T00:21:03;16.30;99.90
324;DHT22;149;51.094;17.002;2022-07-09T00:23:31;16.40;99.90
324;DHT22;149;51.094;17.002;2022-07-09T00:25:58;16.40;99.90
324;DHT22;149;51.094;17.002;2022-07-09T00:28:25;16.50;99.90
324;DHT22;149;51.094;17.002;2022-07-09T00:30:53;16.50;99.90
324;DHT22;149;51.094;17.002;2022-07-09T00:33:20;16.40;99.90
324;DHT22;149;51.094;17.002;2022-07-09T00:35:47;16.50;99.90
324;DHT22;149;51.094;17.002;2022-07-09T00:38:15;16.50;99.90
324;DHT22;149;51.094;17.002;2022-07-09T00:40:42;16.60;99.90
324;DHT22;149;51.094;17.002;2022-07-09T00:43:19;16.60;99.90
324;DHT22;149;51.094;17.002;2022-07-09T00:45:47;16.60;99.90
324;DHT22;149;51.094;17.002;2022-07-09T00:48:15;16.70;99.90
324;DHT22;149;51.094;17.002;2022-07-09T00:50:43;16.60;99.90
324;DHT22;149;51.094;17.002;2022-07-09T00:53:14;16.80;99.90
324;DHT22;149;51.094;17.002;2022-07-09T00:55:41;16.80;99.90
324;DHT22;149;51.094;17.002;2022-07-09T00:58:12;16.80;99.90
324;DHT22;149;51.094;17.002;2022-07-09T01:00:43;16.60;99.90
324;DHT22;149;51.094;17.002;2022-07-09T01:03:11;16.40;99.90
324;DHT22;149;51.094;17.002;2022-07-09T01:05:38;16.20;99.90
324;DHT22;149;51.094;17.002;2022-07-09T01:08:07;16.00;99.90
324;DHT22;149;51.094;17.002;2022-07-09T01:10:35;15.90;99.90
324;DHT22;149;51.094;17.002;2022-07-09T01:13:03;15.80;99.90
324;DHT22;149;51.094;17.002;2022-07-09T01:15:32;15.90;99.90
324;DHT22;149;51.094;17.002;2022-07-09T01:18:00;15.90;99.90
324;DHT22;149;51.094;17.002;2022-07-09T01:20:28;15.90;99.90
324;DHT22;149;51.094;17.002;2022-07-09T01:22:59;15.90;99.90
324;DHT22;149;51.094;17.002;2022-07-09T01:25:38;15.90;99.90
324;DHT22;149;51.094;17.002;2022-07-09T01:28:07;15.70;99.90
324;DHT22;149;51.094;17.002;2022-07-09T01:30:36;15.80;99.90
324;DHT22;149;51.094;17.002;2022-07-09T01:33:05;15.90;99.90
324;DHT22;149;51.094;17.002;2022-07-09T01:35:32;16.00;99.90
324;DHT22;149;51.094;17.002;2022-07-09T01:38:00;16.10;99.90
324;DHT22;149;51.094;17.002;2022-07-09T01:40:27;16.20;99.90
324;DHT22;149;51.094;17.002;2022-07-09T01:42:54;16.40;99.90
324;DHT22;149;51.094;17.002;2022-07-09T01:45:21;16.40;99.90
324;DHT22;149;51.094;17.002;2022-07-09T01:47:48;16.40;99.90
324;DHT22;149;51.094;17.002;2022-07-09T01:50:16;16.40;99.90
324;DHT22;149;51.094;17.002;2022-07-09T01:52:43;16.50;99.90
324;DHT22;149;51.094;17.002;2022-07-09T01:55:11;16.50;99.90
324;DHT22;149;51.094;17.002;2022-07-09T01:57:38;16.70;99.90
324;DHT22;149;51.094;17.002;2022-07-09T02:00:06;16.70;99.90
324;DHT22;149;51.094;17.002;2022-07-09T02:02:33;16.80;99.90
324;DHT22;149;51.094;17.002;2022-07-09T02:05:00;16.70;99.90
324;DHT22;149;51.094;17.002;2022-07-09T02:07:28;16.80;99.90
324;DHT22;149;51.094;17.002;2022-07-09T02:09:55;16.90;99.90
324;DHT22;149;51.094;17.002;2022-07-09T02:12:22;16.90;99.90
324;DHT22;149;51.094;17.002;2022-07-09T02:14:50;16.90;99.90
324;DHT22;149;51.094;17.002;2022-07-09T02:17:17;17.00;99.90
324;DHT22;149;51.094;17.002;2022-07-09T02:19:44;17.00;99.90
324;DHT22;149;51.094;17.002;2022-07-09T02:22:11;17.00;99.90
324;DHT22;149;51.094;17.002;2022-07-09T02:24:38;17.10;99.90
324;DHT22;149;51.094;17.002;2022-07-09T02:27:05;17.00;99.90
324;DHT22;149;51.094;17.002;2022-07-09T02:29:33;16.90;99.90
324;DHT22;149;51.094;17.002;2022-07-09T02:32:00;17.00;99.90
324;DHT22;149;51.094;17.002;2022-07-09T02:34:27;17.00;99.90
324;DHT22;149;51.094;17.002;2022-07-09T02:36:54;16.90;99.90
324;DHT22;149;51.094;17.002;2022-07-09T02:39:22;16.90;99.90
324;DHT22;149;51.094;17.002;2022-07-09T02:41:50;16.90;99.90
324;DHT22;149;51.094;17.002;2022-07-09T02:44:18;16.80;99.90
324;DHT22;149;51.094;17.002;2022-07-09T02:46:45;16.70;99.90
324;DHT22;149;51.094;17.002;2022-07-09T02:49:12;16.70;99.90
324;DHT22;149;51.094;17.002;2022-07-09T02:51:39;16.50;99.90
324;DHT22;149;51.094;17.002;2022-07-09T02:54:07;16.40;99.90
324;DHT22;149;51.094;17.002;2022-07-09T02:56:35;16.50;99.90
324;DHT22;149;51.094;17.002;2022-07-09T02:59:02;16.40;99.90
324;DHT22;149;51.094;17.002;2022-07-09T03:01:30;16.40;99.90
324;DHT22;149;51.094;17.002;2022-07-09T03:03:57;16.40;99.90
324;DHT22;149;51.094;17.002;2022-07-09T03:06:25;16.50;99.90
324;DHT22;149;51.094;17.002;2022-07-09T03:08:52;16.60;99.90
324;DHT22;149;51.094;17.002;2022-07-09T03:11:19;16.60;99.90
324;DHT22;149;51.094;17.002;2022-07-09T03:13:46;16.30;99.90
324;DHT22;149;51.094;17.002;2022-07-09T03:16:13;16.20;99.90
324;DHT22;149;51.094;17.002;2022-07-09T03:18:41;16.20;99.90
324;DHT22;149;51.094;17.002;2022-07-09T03:21:09;16.20;99.90
324;DHT22;149;51.094;17.002;2022-07-09T03:23:38;16.20;99.90
324;DHT22;149;51.094;17.002;2022-07-09T03:26:06;16.20;99.90
324;DHT22;149;51.094;17.002;2022-07-09T03:28:34;16.10;99.90
324;DHT22;149;51.094;17.002;2022-07-09T03:31:02;16.00;99.90
324;DHT22;149;51.094;17.002;2022-07-09T03:33:29;16.10;99.90
324;DHT22;149;51.094;17.002;2022-07-09T03:35:57;16.20;99.90
324;DHT22;149;51.094;17.002;2022-07-09T03:38:25;16.40;99.90
324;DHT22;149;51.094;17.002;2022-07-09T03:40:52;16.30;99.90
324;DHT22;149;51.094;17.002;2022-07-09T03:43:19;16.60;99.90
324;DHT22;149;51.094;17.002;2022-07-09T03:45:46;16.90;99.90
324;DHT22;149;51.094;17.002;2022-07-09T03:48:14;17.10;99.90
324;DHT22;149;51.094;17.002;2022-07-09T03:50:41;17.40;99.90
324;DHT22;149;51.094;17.002;2022-07-09T03:53:08;17.60;99.90
324;DHT22;149;51.094;17.002;2022-07-09T03:55:36;17.70;99.90
324;DHT22;149;51.094;17.002;2022-07-09T03:58:03;17.70;99.90
324;DHT22;149;51.094;17.002;2022-07-09T04:00:30;17.60;99.90
324;DHT22;149;51.094;17.002;2022-07-09T04:02:57;17.50;99.90
324;DHT22;149;51.094;17.002;2022-07-09T04:05:25;17.40;99.90
324;DHT22;149;51.094;17.002;2022-07-09T04:07:52;17.40;99.90
324;DHT22;149;51.094;17.002;2022-07-09T04:10:20;17.30;99.90
324;DHT22;149;51.094;17.002;2022-07-09T04:12:47;17.30;99.90
324;DHT22;149;51.094;17.002;2022-07-09T04:15:15;17.20;99.90
324;DHT22;149;51.094;17.002;2022-07-09T04:17:42;17.00;99.90
324;DHT22;149;51.094;17.002;2022-07-09T04:20:10;17.00;99.90
324;DHT22;149;51.094;17.002;2022-07-09T04:22:37;17.00;99.90
324;DHT22;149;51.094;17.002;2022-07-09T04:25:08;16.90;99.90
324;DHT22;149;51.094;17.002;2022-07-09T04:27:35;17.00;99.90
324;DHT22;149;51.094;17.002;2022-07-09T04:30:07;17.10;99.90
324;DHT22;149;51.094;17.002;2022-07-09T04:32:37;17.20;99.90
324;DHT22;149;51.094;17.002;2022-07-09T04:35:04;17.40;99.90
324;DHT22;149;51.094;17.002;2022-07-09T04:37:32;17.60;99.90
324;DHT22;149;51.094;17.002;2022-07-09T04:39:59;17.80;99.90
324;DHT22;149;51.094;17.002;2022-07-09T04:42:26;17.90;99.90
324;DHT22;149;51.094;17.002;2022-07-09T04:44:53;17.70;99.90
324;DHT22;149;51.094;17.002;2022-07-09T04:47:21;17.70;99.90
324;DHT22;149;51.094;17.002;2022-07-09T04:49:48;17.80;99.90
324;DHT22;149;51.094;17.002;2022-07-09T04:52:16;17.80;99.90
324;DHT22;149;51.094;17.002;2022-07-09T04:54:47;17.80;99.90
324;DHT22;149;51.094;17.002;2022-07-09T04:57:14;17.80;99.90
324;DHT22;149;51.094;17.002;2022-07-09T04:59:41;17.80;99.90
324;DHT22;149;51.094;17.002;2022-07-09T05:02:09;17.80;99.90
324;DHT22;149;51.094;17.002;2022-07-09T05:04:36;17.80;99.90
324;DHT22;149;51.094;17.002;2022-07-09T05:07:04;17.80;99.90
324;DHT22;149;51.094;17.002;2022-07-09T05:09:32;17.80;99.90
324;DHT22;149;51.094;17.002;2022-07-09T05:11:59;17.90;99.90
324;DHT22;149;51.094;17.002;2022-07-09T05:14:26;18.00;99.90
324;DHT22;149;51.094;17.002;2022-07-09T05:16:53;18.20;99.90
324;DHT22;149;51.094;17.002;2022-07-09T05:19:21;18.40;99.90
324;DHT22;149;51.094;17.002;2022-07-09T05:21:49;18.50;99.90
324;DHT22;149;51.094;17.002;2022-07-09T05:24:16;18.60;99.90
324;DHT22;149;51.094;17.002;2022-07-09T05:26:43;18.60;99.90
324;DHT22;149;51.094;17.002;2022-07-09T05:29:10;18.60;99.90
324;DHT22;149;51.094;17.002;2022-07-09T05:31:38;18.50;99.90
324;DHT22;149;51.094;17.002;2022-07-09T05:34:05;18.40;99.90
324;DHT22;149;51.094;17.002;2022-07-09T05:36:33;18.30;99.90
324;DHT22;149;51.094;17.002;2022-07-09T05:39:00;18.20;99.90
324;DHT22;149;51.094;17.002;2022-07-09T05:41:28;18.30;99.90
324;DHT22;149;51.094;17.002;2022-07-09T05:43:55;18.50;99.90
324;DHT22;149;51.094;17.002;2022-07-09T05:46:22;18.60;99.90
324;DHT22;149;51.094;17.002;2022-07-09T05:48:50;18.70;99.90
324;DHT22;149;51.094;17.002;2022-07-09T05:51:17;18.80;99.90
324;DHT22;149;51.094;17.002;2022-07-09T05:53:45;18.90;99.90
324;DHT22;149;51.094;17.002;2022-07-09T05:56:12;19.00;99.90
324;DHT22;149;51.094;17.002;2022-07-09T05:58:40;19.10;99.90
324;DHT22;149;51.094;17.002;2022-07-09T06:01:07;19.10;99.90
324;DHT22;149;51.094;17.002;2022-07-09T06:03:34;19.20;99.90
324;DHT22;149;51.094;17.002;2022-07-09T06:06:04;19.30;99.90
324;DHT22;149;51.094;17.002;2022-07-09T06:08:35;19.10;99.90
324;DHT22;149;51.094;17.002;2022-07-09T06:11:04;19.30;99.90
324;DHT22;149;51.094;17.002;2022-07-09T06:13:31;19.40;99.90
324;DHT22;149;51.094;17.002;2022-07-09T06:15:58;19.60;99.90
324;DHT22;149;51.094;17.002;2022-07-09T06:18:26;19.80;99.90
324;DHT22;149;51.094;17.002;2022-07-09T06:20:54;19.90;99.90
324;DHT22;149;51.094;17.002;2022-07-09T06:23:21;20.00;99.90
324;DHT22;149;51.094;17.002;2022-07-09T06:25:48;20.40;99.90
324;DHT22;149;51.094;17.002;2022-07-09T06:28:16;20.80;99.90
324;DHT22;149;51.094;17.002;2022-07-09T06:30:43;21.10;99.90
324;DHT22;149;51.094;17.002;2022-07-09T06:33:11;21.60;99.90
324;DHT22;149;51.094;17.002;2022-07-09T06:35:38;22.00;99.90
324;DHT22;149;51.094;17.002;2022-07-09T06:38:06;21.80;99.90
324;DHT22;149;51.094;17.002;2022-07-09T06:40:33;21.70;99.90
324;DHT22;149;51.094;17.002;2022-07-09T06:43:01;21.70;99.90
324;DHT22;149;51.094;17.002;2022-07-09T06:45:28;22.00;99.90
324;DHT22;149;51.094;17.002;2022-07-09T06:47:55;22.40;99.90
324;DHT22;149;51.094;17.002;2022-07-09T06:50:22;22.70;99.90
324;DHT22;149;51.094;17.002;2022-07-09T06:52:49;23.30;99.90
324;DHT22;149;51.094;17.002;2022-07-09T06:55:17;23.70;99.90
324;DHT22;149;51.094;17.002;2022-07-09T06:57:44;24.10;99.90
324;DHT22;149;51.094;17.002;2022-07-09T07:00:12;24.70;99.90
324;DHT22;149;51.094;17.002;2022-07-09T07:02:39;25.40;99.90
324;DHT22;149;51.094;17.002;2022-07-09T07:05:07;24.80;99.90
324;DHT22;149;51.094;17.002;2022-07-09T07:07:40;24.30;99.90
324;DHT22;149;51.094;17.002;2022-07-09T07:10:07;24.80;99.90
324;DHT22;149;51.094;17.002;2022-07-09T07:12:35;24.90;99.90
324;DHT22;149;51.094;17.002;2022-07-09T07:15:03;24.20;99.90
324;DHT22;149;51.094;17.002;2022-07-09T07:17:30;24.30;99.90
324;DHT22;149;51.094;17.002;2022-07-09T07:19:58;25.20;99.90
324;DHT22;149;51.094;17.002;2022-07-09T07:22:25;25.80;99.90
324;DHT22;149;51.094;17.002;2022-07-09T07:24:53;25.60;99.90
324;DHT22;149;51.094;17.002;2022-07-09T07:27:20;25.50;99.90
324;DHT22;149;51.094;17.002;2022-07-09T07:29:47;25.30;99.90
324;DHT22;149;51.094;17.002;2022-07-09T07:32:14;25.90;99.90
324;DHT22;149;51.094;17.002;2022-07-09T07:34:42;26.20;99.90
324;DHT22;149;51.094;17.002;2022-07-09T07:37:09;27.10;99.90
324;DHT22;149;51.094;17.002;2022-07-09T07:39:37;29.70;99.90
324;DHT22;149;51.094;17.002;2022-07-09T07:42:04;30.70;98.10
324;DHT22;149;51.094;17.002;2022-07-09T07:44:34;29.00;98.90
324;DHT22;149;51.094;17.002;2022-07-09T07:47:01;28.90;99.10
324;DHT22;149;51.094;17.002;2022-07-09T07:49:28;30.70;96.10
324;DHT22;149;51.094;17.002;2022-07-09T07:51:55;31.70;92.70
324;DHT22;149;51.094;17.002;2022-07-09T07:54:23;29.70;94.30
324;DHT22;149;51.094;17.002;2022-07-09T07:56:50;30.00;94.90
324;DHT22;149;51.094;17.002;2022-07-09T07:59:18;28.80;95.00
324;DHT22;149;51.094;17.002;2022-07-09T08:01:45;27.40;97.10
324;DHT22;149;51.094;17.002;2022-07-09T08:04:12;28.10;96.10
324;DHT22;149;51.094;17.002;2022-07-09T08:06:40;27.40;96.60
324;DHT22;149;51.094;17.002;2022-07-09T08:09:07;28.10;96.20
324;DHT22;149;51.094;17.002;2022-07-09T08:11:35;29.30;94.10
324;DHT22;149;51.094;17.002;2022-07-09T08:14:02;30.90;91.20
324;DHT22;149;51.094;17.002;2022-07-09T08:16:30;31.30;88.80
324;DHT22;149;51.094;17.002;2022-07-09T08:18:57;31.90;83.70
324;DHT22;149;51.094;17.002;2022-07-09T08:21:24;31.60;84.30
324;DHT22;149;51.094;17.002;2022-07-09T08:23:51;30.30;87.70
324;DHT22;149;51.094;17.002;2022-07-09T08:26:25;29.10;90.10
324;DHT22;149;51.094;17.002;2022-07-09T08:28:53;28.60;90.50
324;DHT22;149;51.094;17.002;2022-07-09T08:31:21;28.00;91.60
324;DHT22;149;51.094;17.002;2022-07-09T08:33:49;26.70;94.00
324;DHT22;149;51.094;17.002;2022-07-09T08:36:17;27.80;92.00
324;DHT22;149;51.094;17.002;2022-07-09T08:38:44;29.70;88.00
324;DHT22;149;51.094;17.002;2022-07-09T08:41:12;31.50;82.70
324;DHT22;149;51.094;17.002;2022-07-09T08:43:39;33.10;78.00
324;DHT22;149;51.094;17.002;2022-07-09T08:46:07;33.90;73.80
324;DHT22;149;51.094;17.002;2022-07-09T08:48:35;33.70;73.30
324;DHT22;149;51.094;17.002;2022-07-09T08:51:04;34.60;70.20
324;DHT22;149;51.094;17.002;2022-07-09T08:53:42;35.60;67.40
324;DHT22;149;51.094;17.002;2022-07-09T08:56:11;36.20;62.50
324;DHT22;149;51.094;17.002;2022-07-09T08:58:38;35.30;59.90
324;DHT22;149;51.094;17.002;2022-07-09T09:01:06;35.10;60.10
324;DHT22;149;51.094;17.002;2022-07-09T09:03:35;34.80;59.60
324;DHT22;149;51.094;17.002;2022-07-09T09:06:07;34.90;58.60
324;DHT22;149;51.094;17.002;2022-07-09T09:08:43;33.90;59.80
324;DHT22;149;51.094;17.002;2022-07-09T09:11:19;33.60;61.60
324;DHT22;149;51.094;17.002;2022-07-09T09:13:48;32.30;65.20
324;DHT22;149;51.094;17.002;2022-07-09T09:16:18;32.80;64.80
324;DHT22;149;51.094;17.002;2022-07-09T09:18:47;34.50;60.40
324;DHT22;149;51.094;17.002;2022-07-09T09:21:18;35.40;59.20
324;DHT22;149;51.094;17.002;2022-07-09T09:23:50;35.80;57.10
324;DHT22;149;51.094;17.002;2022-07-09T09:26:21;35.40;57.00
324;DHT22;149;51.094;17.002;2022-07-09T09:28:58;35.00;57.50
324;DHT22;149;51.094;17.002;2022-07-09T09:31:36;34.40;58.20
324;DHT22;149;51.094;17.002;2022-07-09T09:34:10;32.90;60.10
324;DHT22;149;51.094;17.002;2022-07-09T09:36:42;32.40;61.10
324;DHT22;149;51.094;17.002;2022-07-09T09:39:15;32.00;60.70
324;DHT22;149;51.094;17.002;2022-07-09T09:41:45;31.10;64.20
324;DHT22;149;51.094;17.002;2022-07-09T09:46:47;28.20;72.80
324;DHT22;149;51.094;17.002;2022-07-09T09:49:15;27.40;75.20
324;DHT22;149;51.094;17.002;2022-07-09T09:52:05;26.80;77.80
324;DHT22;149;51.094;17.002;2022-07-09T09:54:34;26.40;79.30
324;DHT22;149;51.094;17.002;2022-07-09T09:57:07;26.10;80.20
324;DHT22;149;51.094;17.002;2022-07-09T09:59:39;25.80;82.40
324;DHT22;149;51.094;17.002;2022-07-09T10:02:09;25.70;83.40
324;DHT22;149;51.094;17.002;2022-07-09T10:04:37;25.00;83.90
324;DHT22;149;51.094;17.002;2022-07-09T10:07:07;24.80;85.70
324;DHT22;149;51.094;17.002;2022-07-09T10:09:35;24.80;86.20
324;DHT22;149;51.094;17.002;2022-07-09T10:12:02;24.80;85.00
324;DHT22;149;51.094;17.002;2022-07-09T10:14:34;24.70;85.30
324;DHT22;149;51.094;17.002;2022-07-09T10:17:13;24.70;86.20
324;DHT22;149;51.094;17.002;2022-07-09T10:20:04;24.60;87.20
324;DHT22;149;51.094;17.002;2022-07-09T10:22:39;24.60;89.70
324;DHT22;149;51.094;17.002;2022-07-09T10:25:12;24.70;90.20
324;DHT22;149;51.094;17.002;2022-07-09T10:27:46;24.40;90.30
324;DHT22;149;51.094;17.002;2022-07-09T10:30:26;24.40;91.40
324;DHT22;149;51.094;17.002;2022-07-09T10:35:43;24.70;91.90
324;DHT22;149;51.094;17.002;2022-07-09T10:38:11;24.60;91.40
324;DHT22;149;51.094;17.002;2022-07-09T10:40:43;24.60;91.80
324;DHT22;149;51.094;17.002;2022-07-09T10:43:12;24.70;90.50
324;DHT22;149;51.094;17.002;2022-07-09T10:45:41;24.70;91.00
324;DHT22;149;51.094;17.002;2022-07-09T10:48:10;24.60;90.70
324;DHT22;149;51.094;17.002;2022-07-09T10:50:43;24.60;90.60
324;DHT22;149;51.094;17.002;2022-07-09T10:53:11;24.70;90.30
324;DHT22;149;51.094;17.002;2022-07-09T10:55:43;24.80;89.40
324;DHT22;149;51.094;17.002;2022-07-09T10:58:19;24.60;90.60
324;DHT22;149;51.094;17.002;2022-07-09T11:01:00;24.50;91.30
324;DHT22;149;51.094;17.002;2022-07-09T11:03:32;24.50;90.90
324;DHT22;149;51.094;17.002;2022-07-09T11:05:59;24.40;91.00
324;DHT22;149;51.094;17.002;2022-07-09T11:08:26;24.20;92.00
324;DHT22;149;51.094;17.002;2022-07-09T11:10:54;24.40;92.60
324;DHT22;149;51.094;17.002;2022-07-09T11:13:24;24.50;91.80
324;DHT22;149;51.094;17.002;2022-07-09T11:15:58;24.60;92.30
324;DHT22;149;51.094;17.002;2022-07-09T11:18:28;24.80;92.10
324;DHT22;149;51.094;17.002;2022-07-09T11:20:56;24.70;91.70
324;DHT22;149;51.094;17.002;2022-07-09T11:23:23;24.80;91.40
324;DHT22;149;51.094;17.002;2022-07-09T11:25:50;24.70;90.60
324;DHT22;149;51.094;17.002;2022-07-09T11:28:22;24.90;92.00
324;DHT22;149;51.094;17.002;2022-07-09T11:31:00;25.30;92.20
324;DHT22;149;51.094;17.002;2022-07-09T11:33:28;25.50;91.20
324;DHT22;149;51.094;17.002;2022-07-09T11:36:16;25.60;91.70
324;DHT22;149;51.094;17.002;2022-07-09T11:39:02;25.90;91.00
324;DHT22;149;51.094;17.002;2022-07-09T11:41:43;26.20;90.20
324;DHT22;149;51.094;17.002;2022-07-09T11:44:11;26.00;89.30
324;DHT22;149;51.094;17.002;2022-07-09T11:46:46;26.10;90.00
324;DHT22;149;51.094;17.002;2022-07-09T11:49:32;26.10;90.00
324;DHT22;149;51.094;17.002;2022-07-09T11:52:00;26.20;88.60
324;DHT22;149;51.094;17.002;2022-07-09T11:54:28;26.00;88.20
324;DHT22;149;51.094;17.002;2022-07-09T11:56:55;25.60;90.50
324;DHT22;149;51.094;17.002;2022-07-09T11:59:29;25.50;91.40
324;DHT22;149;51.094;17.002;2022-07-09T12:02:00;25.70;90.30
324;DHT22;149;51.094;17.002;2022-07-09T12:04:30;25.90;89.40
324;DHT22;149;51.094;17.002;2022-07-09T12:06:57;26.00;90.50
324;DHT22;149;51.094;17.002;2022-07-09T12:09:32;26.20;89.60
324;DHT22;149;51.094;17.002;2022-07-09T12:12:00;26.40;88.60
324;DHT22;149;51.094;17.002;2022-07-09T12:14:27;26.20;86.10
324;DHT22;149;51.094;17.002;2022-07-09T12:16:56;25.80;86.00
324;DHT22;149;51.094;17.002;2022-07-09T12:19:23;25.70;86.70
324;DHT22;149;51.094;17.002;2022-07-09T12:21:51;25.20;86.80
324;DHT22;149;51.094;17.002;2022-07-09T12:24:24;25.00;87.80
324;DHT22;149;51.094;17.002;2022-07-09T12:26:52;24.90;89.20
324;DHT22;149;51.094;17.002;2022-07-09T12:29:39;24.80;90.70
324;DHT22;149;51.094;17.002;2022-07-09T12:32:06;24.90;91.20
324;DHT22;149;51.094;17.002;2022-07-09T12:34:34;25.10;91.10
324;DHT22;149;51.094;17.002;2022-07-09T12:37:05;24.80;91.20
324;DHT22;149;51.094;17.002;2022-07-09T12:39:33;24.50;92.60
324;DHT22;149;51.094;17.002;2022-07-09T12:42:00;24.20;92.70
324;DHT22;149;51.094;17.002;2022-07-09T12:44:28;24.20;93.20
324;DHT22;149;51.094;17.002;2022-07-09T12:46:55;24.10;93.50
324;DHT22;149;51.094;17.002;2022-07-09T12:49:22;23.90;94.00
324;DHT22;149;51.094;17.002;2022-07-09T12:51:50;23.90;94.20
324;DHT22;149;51.094;17.002;2022-07-09T12:54:17;23.90;94.20
324;DHT22;149;51.094;17.002;2022-07-09T12:56:45;24.00;94.60
324;DHT22;149;51.094;17.002;2022-07-09T12:59:34;24.00;94.70
324;DHT22;149;51.094;17.002;2022-07-09T13:02:02;24.10;94.80
324;DHT22;149;51.094;17.002;2022-07-09T13:04:29;24.30;95.10
324;DHT22;149;51.094;17.002;2022-07-09T13:06:57;24.20;95.30
324;DHT22;149;51.094;17.002;2022-07-09T13:09:24;24.00;95.40
324;DHT22;149;51.094;17.002;2022-07-09T13:11:51;23.60;96.50
324;DHT22;149;51.094;17.002;2022-07-09T13:14:18;23.90;97.30
324;DHT22;149;51.094;17.002;2022-07-09T13:16:45;23.90;96.70
324;DHT22;149;51.094;17.002;2022-07-09T13:19:32;23.60;97.20
324;DHT22;149;51.094;17.002;2022-07-09T13:22:00;23.50;98.20
324;DHT22;149;51.094;17.002;2022-07-09T13:24:27;23.50;98.70
324;DHT22;149;51.094;17.002;2022-07-09T13:26:55;23.30;98.90
324;DHT22;149;51.094;17.002;2022-07-09T13:29:22;23.30;99.30
324;DHT22;149;51.094;17.002;2022-07-09T13:31:49;23.20;99.90
324;DHT22;149;51.094;17.002;2022-07-09T13:34:17;23.00;99.90
324;DHT22;149;51.094;17.002;2022-07-09T13:36:44;22.80;99.90
324;DHT22;149;51.094;17.002;2022-07-09T13:39:11;22.70;99.90
324;DHT22;149;51.094;17.002;2022-07-09T13:41:41;22.60;99.90
324;DHT22;149;51.094;17.002;2022-07-09T13:44:09;22.60;99.90
324;DHT22;149;51.094;17.002;2022-07-09T13:46:36;22.40;99.90
324;DHT22;149;51.094;17.002;2022-07-09T13:49:03;22.30;99.90
324;DHT22;149;51.094;17.002;2022-07-09T13:51:30;22.10;99.90
324;DHT22;149;51.094;17.002;2022-07-09T13:54:00;21.80;99.90
324;DHT22;149;51.094;17.002;2022-07-09T13:56:27;21.70;99.90
324;DHT22;149;51.094;17.002;2022-07-09T13:58:55;21.70;99.90
324;DHT22;149;51.094;17.002;2022-07-09T14:01:22;21.70;99.90
324;DHT22;149;51.094;17.002;2022-07-09T14:03:49;22.00;99.90
324;DHT22;149;51.094;17.002;2022-07-09T14:06:16;22.10;99.90
324;DHT22;149;51.094;17.002;2022-07-09T14:09:04;22.20;99.90
324;DHT22;149;51.094;17.002;2022-07-09T14:11:31;22.10;99.90
324;DHT22;149;51.094;17.002;2022-07-09T14:13:58;22.10;99.90
324;DHT22;149;51.094;17.002;2022-07-09T14:16:27;22.00;99.90
324;DHT22;149;51.094;17.002;2022-07-09T14:18:54;22.20;99.90
324;DHT22;149;51.094;17.002;2022-07-09T14:21:22;22.10;99.90
324;DHT22;149;51.094;17.002;2022-07-09T14:23:50;22.10;99.90
324;DHT22;149;51.094;17.002;2022-07-09T14:26:17;21.90;99.90
324;DHT22;149;51.094;17.002;2022-07-09T14:28:45;21.90;99.90
324;DHT22;149;51.094;17.002;2022-07-09T14:31:12;22.00;99.90
324;DHT22;149;51.094;17.002;2022-07-09T14:33:40;21.90;99.90
324;DHT22;149;51.094;17.002;2022-07-09T14:36:07;21.90;99.90
324;DHT22;149;51.094;17.002;2022-07-09T14:38:35;22.20;99.90
324;DHT22;149;51.094;17.002;2022-07-09T14:41:03;22.50;99.90
324;DHT22;149;51.094;17.002;2022-07-09T14:43:30;22.60;99.90
324;DHT22;149;51.094;17.002;2022-07-09T14:45:57;22.50;99.90
324;DHT22;149;51.094;17.002;2022-07-09T14:48:25;22.50;99.90
324;DHT22;149;51.094;17.002;2022-07-09T14:50:52;22.50;99.90
324;DHT22;149;51.094;17.002;2022-07-09T14:53:19;22.40;99.90
324;DHT22;149;51.094;17.002;2022-07-09T14:55:47;22.20;99.90
324;DHT22;149;51.094;17.002;2022-07-09T14:58:14;22.10;99.90
324;DHT22;149;51.094;17.002;2022-07-09T15:00:42;22.10;99.90
324;DHT22;149;51.094;17.002;2022-07-09T15:03:09;22.00;99.90
324;DHT22;149;51.094;17.002;2022-07-09T15:05:37;21.80;99.90
324;DHT22;149;51.094;17.002;2022-07-09T15:08:10;21.70;99.90
324;DHT22;149;51.094;17.002;2022-07-09T15:10:37;21.70;99.90
324;DHT22;149;51.094;17.002;2022-07-09T15:13:05;21.50;99.90
324;DHT22;149;51.094;17.002;2022-07-09T15:15:34;21.40;99.90
324;DHT22;149;51.094;17.002;2022-07-09T15:18:02;21.40;99.90
324;DHT22;149;51.094;17.002;2022-07-09T15:20:31;21.50;99.90
324;DHT22;149;51.094;17.002;2022-07-09T15:22:59;21.40;99.90
324;DHT22;149;51.094;17.002;2022-07-09T15:25:27;21.40;99.90
324;DHT22;149;51.094;17.002;2022-07-09T15:27:57;21.40;99.90
324;DHT22;149;51.094;17.002;2022-07-09T15:30:25;21.40;99.90
324;DHT22;149;51.094;17.002;2022-07-09T15:32:52;21.30;99.90
324;DHT22;149;51.094;17.002;2022-07-09T15:35:19;21.30;99.90
324;DHT22;149;51.094;17.002;2022-07-09T15:37:47;21.20;99.90
324;DHT22;149;51.094;17.002;2022-07-09T15:40:16;21.10;99.90
324;DHT22;149;51.094;17.002;2022-07-09T15:42:46;21.20;99.90
324;DHT22;149;51.094;17.002;2022-07-09T15:45:14;21.10;99.90
324;DHT22;149;51.094;17.002;2022-07-09T15:47:41;21.00;99.90
324;DHT22;149;51.094;17.002;2022-07-09T15:50:17;21.00;99.90
324;DHT22;149;51.094;17.002;2022-07-09T15:52:44;20.90;99.90
324;DHT22;149;51.094;17.002;2022-07-09T15:55:12;20.90;99.90
324;DHT22;149;51.094;17.002;2022-07-09T15:57:39;20.80;99.90
324;DHT22;149;51.094;17.002;2022-07-09T16:00:09;20.70;99.90
324;DHT22;149;51.094;17.002;2022-07-09T16:02:37;20.70;99.90
324;DHT22;149;51.094;17.002;2022-07-09T16:05:06;20.70;99.90
324;DHT22;149;51.094;17.002;2022-07-09T16:07:34;20.80;99.90
324;DHT22;149;51.094;17.002;2022-07-09T16:10:03;20.80;99.90
324;DHT22;149;51.094;17.002;2022-07-09T16:12:30;21.00;99.90
324;DHT22;149;51.094;17.002;2022-07-09T16:15:18;20.90;99.90
324;DHT22;149;51.094;17.002;2022-07-09T16:17:45;20.90;99.90
324;DHT22;149;51.094;17.002;2022-07-09T16:20:18;20.90;99.90
324;DHT22;149;51.094;17.002;2022-07-09T16:22:46;20.80;99.90
324;DHT22;149;51.094;17.002;2022-07-09T16:25:14;20.70;99.90
324;DHT22;149;51.094;17.002;2022-07-09T16:27:42;20.60;99.90
324;DHT22;149;51.094;17.002;2022-07-09T16:30:11;20.40;99.90
324;DHT22;149;51.094;17.002;2022-07-09T16:32:38;20.40;99.90